Time;durP1;ratioP1;P1;durP2;ratioP2;P2;SDS_P1;SDS_P2;PMS_P1;PMS_P2;Temp;Humidity;BMP_temperature;BMP_pressure;BME280_temperature;BME280_humidity;BME280_pressure;Samples;Min_cycle;Max_cycle;Signal;HPM_P1;HPM_P2
2022/03/25 00:01:26;;;;;;;15.23;6.95;;;;;;;1.45;68.28;96348.75;5084099;28;20046;-75
2022/03/25 00:03:52;;;;;;;12.77;6.93;;;;;;;1.27;68.95;96351.00;5104172;28;20063;-75
2022/03/25 00:06:18;;;;;;;15.63;7.18;;;;;;;1.18;68.70;96353.75;5107244;28;20542;-75
2022/03/25 00:08:43;;;;;;;14.50;6.85;;;;;;;1.20;69.23;96351.75;5089205;28;20047;-74
2022/03/25 00:11:09;;;;;;;16.10;7.38;;;;;;;1.22;69.02;96343.78;5094376;28;20428;-75
2022/03/25 00:13:35;;;;;;;13.90;7.15;;;;;;;1.14;69.59;96344.72;5088487;28;20063;-75
2022/03/25 00:16:02;;;;;;;15.98;6.82;;;;;;;1.20;69.40;96345.78;5088709;28;20044;-75
2022/03/25 00:18:28;;;;;;;18.17;7.50;;;;;;;1.13;69.09;96340.53;5092282;28;20044;-75
2022/03/25 00:20:54;;;;;;;16.38;7.65;;;;;;;1.09;69.75;96348.88;5086339;28;20132;-75
2022/03/25 00:23:20;;;;;;;18.23;7.07;;;;;;;1.00;70.05;96340.44;5097737;28;20043;-75
2022/03/25 00:25:46;;;;;;;20.30;7.50;;;;;;;1.03;69.87;96334.88;5096261;28;20051;-74
2022/03/25 00:28:11;;;;;;;15.32;8.10;;;;;;;0.96;70.22;96339.22;5074171;28;20036;-75
2022/03/25 00:30:37;;;;;;;16.77;7.32;;;;;;;0.88;70.11;96341.94;5074189;28;20146;-74
2022/03/25 00:33:02;;;;;;;17.23;7.00;;;;;;;0.80;70.05;96330.72;5091976;28;20044;-75
2022/03/25 00:35:28;;;;;;;13.90;7.05;;;;;;;0.75;70.75;96338.25;5105866;28;20040;-74
2022/03/25 00:37:53;;;;;;;15.80;6.65;;;;;;;0.73;70.97;96331.66;5109528;28;20058;-74
2022/03/25 00:40:19;;;;;;;14.48;6.88;;;;;;;0.73;70.83;96329.84;5112730;28;20040;-74
2022/03/25 00:42:47;;;;;;;12.95;6.82;;;;;;;0.67;71.18;96330.63;5103375;28;20463;-74
2022/03/25 00:45:13;;;;;;;14.82;7.30;;;;;;;0.64;70.89;96326.59;5093234;28;20039;-74
2022/03/25 00:47:38;;;;;;;16.55;7.70;;;;;;;0.66;70.94;96339.38;5082778;28;20050;-74
2022/03/25 00:50:06;;;;;;;19.08;7.43;;;;;;;0.61;71.28;96331.38;5092274;28;20036;-74
2022/03/25 00:52:31;;;;;;;14.18;7.40;;;;;;;0.57;71.74;96324.94;5091552;28;20044;-74
2022/03/25 00:54:57;;;;;;;16.90;7.45;;;;;;;0.45;71.83;96328.03;5091639;28;20040;-74
2022/03/25 00:57:23;;;;;;;18.75;7.82;;;;;;;0.46;71.87;96332.22;5082687;28;20059;-74
2022/03/25 00:59:48;;;;;;;18.77;7.57;;;;;;;0.49;71.71;96328.47;5091936;28;20044;-75
2022/03/25 01:02:14;;;;;;;18.33;7.97;;;;;;;0.44;71.73;96330.81;5098228;28;20118;-74
2022/03/25 01:04:39;;;;;;;15.85;8.07;;;;;;;0.48;71.66;96327.66;5107861;28;20048;-75
2022/03/25 01:07:05;;;;;;;15.77;8.25;;;;;;;0.47;71.57;96328.63;5095514;28;20564;-75
2022/03/25 01:09:31;;;;;;;16.20;7.55;;;;;;;0.43;71.92;96314.47;5091523;28;20044;-74
2022/03/25 01:11:56;;;;;;;16.75;7.30;;;;;;;0.34;72.23;96318.16;5090972;28;20088;-74
2022/03/25 01:14:22;;;;;;;16.13;7.57;;;;;;;0.34;72.18;96315.56;5080139;28;20070;-74
2022/03/25 01:16:48;;;;;;;15.55;8.00;;;;;;;0.29;72.64;96323.09;5110334;28;20583;-74
2022/03/25 01:19:13;;;;;;;16.67;8.13;;;;;;;0.22;72.95;96322.25;5102907;28;20044;-74
2022/03/25 01:21:39;;;;;;;13.23;7.20;;;;;;;0.14;73.07;96326.53;5104643;28;20050;-74
2022/03/25 01:24:05;;;;;;;17.08;7.50;;;;;;;0.17;73.56;96323.59;5105072;28;20044;-74
2022/03/25 01:26:32;;;;;;;22.05;8.45;;;;;;;0.14;73.16;96320.53;5092227;28;20042;-75
2022/03/25 01:28:57;;;;;;;16.60;7.68;;;;;;;0.09;73.57;96323.69;5095121;28;20123;-75
2022/03/25 01:31:23;;;;;;;17.88;7.80;;;;;;;0.08;73.57;96316.91;5091229;28;20071;-75
2022/03/25 01:33:49;;;;;;;17.27;7.75;;;;;;;0.06;73.47;96318.88;5090861;28;20044;-75
2022/03/25 01:36:15;;;;;;;15.10;7.57;;;;;;;-0.04;73.99;96308.03;5090667;28;20044;-75
2022/03/25 01:38:41;;;;;;;17.48;8.30;;;;;;;0.03;74.04;96314.06;5095646;28;20050;-75
2022/03/25 01:41:07;;;;;;;18.00;7.82;;;;;;;0.03;74.19;96314.06;5090086;28;20050;-75
2022/03/25 01:43:34;;;;;;;16.80;7.65;;;;;;;0.01;73.88;96310.06;5090621;28;20036;-76
2022/03/25 01:46:00;;;;;;;15.73;7.82;;;;;;;-0.12;74.49;96315.88;5099148;28;20044;-75
2022/03/25 01:48:26;;;;;;;15.68;7.18;;;;;;;-0.16;74.51;96315.44;5090875;28;20052;-75
2022/03/25 01:50:52;;;;;;;15.57;7.53;;;;;;;-0.19;74.27;96311.44;5103840;28;20466;-74
2022/03/25 01:53:21;;;;;;;14.20;7.65;;;;;;;-0.15;74.74;96313.66;5091804;28;20044;-75
2022/03/25 01:56:01;;;;;;;15.65;7.57;;;;;;;-0.09;74.41;96311.13;5093016;28;20038;-75
2022/03/25 01:58:32;;;;;;;17.83;7.18;;;;;;;-0.12;74.18;96310.72;5091951;28;20039;-74
2022/03/25 02:00:59;;;;;;;14.95;7.50;;;;;;;-0.23;74.54;96310.22;5108109;28;20043;-74
2022/03/25 02:03:24;;;;;;;14.13;6.93;;;;;;;-0.12;74.85;96305.53;5092410;28;20044;-74
2022/03/25 02:05:50;;;;;;;15.45;7.38;;;;;;;-0.12;74.15;96300.38;5106702;28;20060;-75
2022/03/25 02:08:17;;;;;;;14.63;7.10;;;;;;;-0.18;74.85;96301.91;5094087;28;20036;-74
2022/03/25 02:10:43;;;;;;;19.75;8.40;;;;;;;-0.29;74.81;96297.97;5099909;28;20081;-75
2022/03/25 02:13:10;;;;;;;15.75;7.50;;;;;;;-0.33;75.37;96299.34;5097260;28;20059;-74
2022/03/25 02:15:40;;;;;;;14.43;7.45;;;;;;;-0.25;75.15;96296.63;5090317;28;20143;-74
2022/03/25 02:18:12;;;;;;;15.43;7.13;;;;;;;-0.35;74.93;96301.28;5095631;28;20043;-74
2022/03/25 02:20:39;;;;;;;17.17;7.50;;;;;;;-0.35;75.03;96296.13;5104101;28;20039;-74
2022/03/25 02:23:06;;;;;;;14.63;7.20;;;;;;;-0.28;75.21;96304.75;5096391;28;20390;-74
2022/03/25 02:25:32;;;;;;;17.10;7.20;;;;;;;-0.39;75.37;96302.63;5098656;28;20044;-75
2022/03/25 02:27:59;;;;;;;14.55;6.93;;;;;;;-0.47;75.65;96313.09;5096184;28;20031;-74
2022/03/25 02:30:26;;;;;;;19.35;7.60;;;;;;;-0.48;75.71;96314.06;5107000;28;20055;-74
2022/03/25 02:32:52;;;;;;;16.10;7.35;;;;;;;-0.62;76.65;96306.13;5101619;28;20498;-75
2022/03/25 02:35:18;;;;;;;16.17;7.15;;;;;;;-0.61;76.67;96312.91;5106235;28;20047;-76
2022/03/25 02:37:43;;;;;;;17.48;7.65;;;;;;;-0.47;75.82;96315.69;5071894;28;20453;-75
2022/03/25 02:40:11;;;;;;;17.33;7.47;;;;;;;-0.41;75.55;96317.53;5089562;28;20044;-75
2022/03/25 02:42:37;;;;;;;14.27;7.13;;;;;;;-0.38;75.98;96322.34;5095651;28;20044;-75
2022/03/25 02:45:03;;;;;;;14.95;7.68;;;;;;;-0.46;75.66;96314.69;5105402;28;20089;-75
2022/03/25 02:47:29;;;;;;;14.65;7.07;;;;;;;-0.45;75.93;96316.28;5090700;28;20111;-75
2022/03/25 02:49:55;;;;;;;14.02;7.53;;;;;;;-0.45;75.87;96311.13;5071571;28;20058;-75
2022/03/25 02:52:20;;;;;;;13.45;7.55;;;;;;;-0.51;76.45;96307.47;5101902;28;20070;-75
2022/03/25 02:54:46;;;;;;;13.65;7.15;;;;;;;-0.50;76.62;96319.41;5091782;28;20531;-75
2022/03/25 02:57:11;;;;;;;13.95;7.68;;;;;;;-0.42;76.71;96313.34;5090656;28;20068;-74
2022/03/25 02:59:37;;;;;;;18.02;7.45;;;;;;;-0.51;76.63;96317.81;5089510;28;20051;-75
2022/03/25 03:02:03;;;;;;;17.10;7.35;;;;;;;-0.56;76.53;96315.75;5081578;28;20039;-74
2022/03/25 03:04:28;;;;;;;12.88;6.70;;;;;;;-0.54;76.61;96316.38;5097858;28;20433;-74
2022/03/25 03:06:54;;;;;;;17.83;7.75;;;;;;;-0.42;76.00;96310.75;5090591;28;20054;-74
2022/03/25 03:09:20;;;;;;;13.93;7.00;;;;;;;-0.45;76.17;96305.94;5093671;28;20043;-74
2022/03/25 03:11:45;;;;;;;15.80;6.93;;;;;;;-0.50;76.69;96309.06;5089319;28;20413;-74
2022/03/25 03:14:12;;;;;;;14.50;6.80;;;;;;;-0.45;76.17;96311.13;5084846;28;20040;-75
2022/03/25 03:16:38;;;;;;;15.27;7.10;;;;;;;-0.51;75.60;96310.06;5084095;28;20040;-75
2022/03/25 03:19:04;;;;;;;14.23;6.97;;;;;;;-0.62;76.09;96311.28;5078486;28;20039;-74
2022/03/25 03:21:31;;;;;;;15.60;7.70;;;;;;;-0.63;76.91;96314.88;5108772;28;20043;-75
2022/03/25 03:23:57;;;;;;;16.52;6.82;;;;;;;-0.55;76.61;96314.78;5089785;28;20040;-75
2022/03/25 03:26:23;;;;;;;16.98;7.15;;;;;;;-0.51;76.61;96314.44;5085750;28;20051;-75
2022/03/25 03:28:48;;;;;;;14.32;7.25;;;;;;;-0.56;76.42;96315.75;5089103;28;20048;-75
2022/03/25 03:31:14;;;;;;;15.23;7.43;;;;;;;-0.68;77.51;96322.34;5089098;28;20409;-74
2022/03/25 03:33:40;;;;;;;16.40;7.50;;;;;;;-0.66;77.03;96315.25;5088493;28;20105;-74
2022/03/25 03:36:06;;;;;;;14.48;7.05;;;;;;;-0.51;76.48;96314.44;5089132;28;20405;-74
2022/03/25 03:38:31;;;;;;;17.27;6.88;;;;;;;-0.58;77.23;96312.53;5103610;28;20040;-74
2022/03/25 03:40:57;;;;;;;14.93;7.63;;;;;;;-0.54;77.28;96311.22;5109367;28;20122;-74
2022/03/25 03:43:22;;;;;;;13.73;6.93;;;;;;;-0.53;76.88;96315.41;5107193;28;20042;-74
2022/03/25 03:45:48;;;;;;;14.75;6.35;;;;;;;-0.54;77.13;96306.03;5107437;28;20051;-74
2022/03/25 03:48:14;;;;;;;14.65;6.90;;;;;;;-0.51;77.36;96309.25;5097316;28;20055;-74
2022/03/25 03:50:40;;;;;;;16.80;7.15;;;;;;;-0.50;77.40;96313.44;5072537;28;20043;-74
2022/03/25 03:53:06;;;;;;;17.45;7.20;;;;;;;-0.57;77.42;96308.97;5104516;28;20044;-75
2022/03/25 03:55:32;;;;;;;22.42;6.70;;;;;;;-0.67;77.45;96308.44;5089569;28;20105;-74
2022/03/25 03:57:58;;;;;;;14.63;7.03;;;;;;;-0.69;78.16;96305.22;5086314;28;20489;-74
2022/03/25 04:00:24;;;;;;;13.82;6.88;;;;;;;-0.73;78.05;96304.00;5107218;28;20055;-74
2022/03/25 04:02:50;;;;;;;13.70;6.97;;;;;;;-0.78;78.33;96306.31;5100010;28;20390;-74
2022/03/25 04:05:16;;;;;;;12.65;7.13;;;;;;;-0.77;78.03;96313.09;5099765;28;20061;-74
2022/03/25 04:07:47;;;;;;;16.30;7.25;;;;;;;-0.65;77.64;96306.47;5102039;28;20040;-74
2022/03/25 04:10:18;;;;;;;16.33;6.68;;;;;;;-0.63;77.82;96299.38;5111605;28;20549;-74
2022/03/25 04:12:43;;;;;;;16.58;7.03;;;;;;;-0.63;78.21;96299.38;5113264;28;20051;-74
2022/03/25 04:15:10;;;;;;;13.70;6.25;;;;;;;-0.61;77.68;96307.72;5099047;28;20044;-74
2022/03/25 04:17:40;;;;;;;14.32;7.32;;;;;;;-0.78;78.33;96306.31;5112853;28;20122;-75
2022/03/25 04:20:13;;;;;;;18.70;7.35;;;;;;;-0.79;77.78;96299.53;5104385;28;20497;-74
2022/03/25 04:22:39;;;;;;;13.27;6.80;;;;;;;-0.75;77.87;96300.78;5101199;28;20078;-74
2022/03/25 04:25:07;;;;;;;13.40;6.88;;;;;;;-0.72;78.27;96301.25;5105767;28;20043;-74
2022/03/25 04:27:33;;;;;;;14.88;7.22;;;;;;;-0.64;78.05;96308.09;5075791;28;20071;-75
2022/03/25 04:29:59;;;;;;;13.80;6.43;;;;;;;-0.68;78.09;96301.66;5092413;28;20040;-74
2022/03/25 04:32:24;;;;;;;14.10;6.97;;;;;;;-0.74;78.27;96302.41;5092197;28;20056;-74
2022/03/25 04:34:50;;;;;;;13.35;6.63;;;;;;;-0.84;78.79;96307.81;5092204;28;20241;-74
2022/03/25 04:37:15;;;;;;;16.17;7.10;;;;;;;-0.91;78.39;96302.53;5092023;28;20040;-73
2022/03/25 04:39:41;;;;;;;13.70;6.32;;;;;;;-0.84;78.61;96307.03;5104075;28;20043;-75
2022/03/25 04:42:07;;;;;;;14.45;6.35;;;;;;;-0.79;78.81;96299.53;5101145;28;20047;-75
2022/03/25 04:44:34;;;;;;;12.90;6.05;;;;;;;-0.76;78.59;96300.00;5109921;28;20405;-75
2022/03/25 04:46:59;;;;;;;17.65;7.28;;;;;;;-0.88;78.72;96302.22;5086843;28;20064;-74
2022/03/25 04:49:25;;;;;;;16.65;6.38;;;;;;;-0.88;78.57;96301.41;5092058;28;20655;-75
2022/03/25 04:51:51;;;;;;;18.50;7.60;;;;;;;-0.94;79.34;96295.16;5097431;28;20043;-74
2022/03/25 04:54:16;;;;;;;19.33;7.00;;;;;;;-0.89;79.75;96310.94;5111077;28;20416;-74
2022/03/25 04:56:42;;;;;;;14.80;6.40;;;;;;;-0.95;80.24;96303.91;5088570;28;20069;-74
2022/03/25 04:59:08;;;;;;;12.68;6.20;;;;;;;-0.83;79.27;96308.63;5108892;28;20085;-74
2022/03/25 05:01:34;;;;;;;12.98;6.40;;;;;;;-0.84;79.29;96314.78;5075974;28;20048;-74
2022/03/25 05:03:59;;;;;;;12.82;6.78;;;;;;;-0.87;79.72;96308.19;5099737;28;20725;-74
2022/03/25 05:06:25;;;;;;;14.57;6.50;;;;;;;-0.94;79.62;96308.06;5101077;28;20036;-74
2022/03/25 05:08:51;;;;;;;15.60;6.90;;;;;;;-1.02;80.28;96310.75;5091931;28;20043;-74
2022/03/25 05:11:16;;;;;;;13.00;6.40;;;;;;;-0.97;80.33;96318.78;5091858;28;20119;-74
2022/03/25 05:13:42;;;;;;;15.38;6.15;;;;;;;-0.91;79.97;96312.88;5081378;28;20056;-74
2022/03/25 05:16:07;;;;;;;14.07;6.38;;;;;;;-0.84;79.77;96317.38;5079009;28;20043;-75
2022/03/25 05:18:33;;;;;;;14.07;6.97;;;;;;;-0.83;79.81;96308.63;5075556;28;20053;-75
2022/03/25 05:21:01;;;;;;;12.50;6.50;;;;;;;-0.87;79.41;96316.72;5087697;28;20036;-74
2022/03/25 05:23:27;;;;;;;14.68;6.95;;;;;;;-0.89;80.04;96321.28;5098005;28;20040;-74
2022/03/25 05:25:52;;;;;;;11.20;6.32;;;;;;;-0.88;80.03;96312.56;5085779;28;20036;-74
2022/03/25 05:28:19;;;;;;;14.10;6.57;;;;;;;-0.88;80.66;96328.06;5090185;28;20040;-74
2022/03/25 05:30:45;;;;;;;12.20;6.60;;;;;;;-0.80;81.09;96323.78;5091373;28;20040;-74
2022/03/25 05:33:10;;;;;;;14.85;6.47;;;;;;;-0.85;80.66;96326.09;5090880;28;20472;-74
2022/03/25 05:35:35;;;;;;;17.90;6.95;;;;;;;-0.92;81.00;96325.97;5091415;28;20094;-74
2022/03/25 05:38:01;;;;;;;13.00;6.60;;;;;;;-0.90;81.03;96334.38;5075196;28;20036;-75
2022/03/25 05:40:27;;;;;;;13.70;6.32;;;;;;;-0.87;81.50;96334.81;5091036;28;20070;-74
2022/03/25 05:42:53;;;;;;;11.55;6.00;;;;;;;-0.75;80.77;96332.63;5090441;28;20058;-74
2022/03/25 05:45:20;;;;;;;17.17;6.75;;;;;;;-0.69;80.66;96331.06;5104109;28;20165;-74
2022/03/25 05:47:46;;;;;;;18.92;6.47;;;;;;;-0.70;80.99;96339.84;5109105;28;20043;-74
2022/03/25 05:50:12;;;;;;;12.13;6.28;;;;;;;-0.72;81.13;96336.59;5101721;28;20515;-75
2022/03/25 05:52:40;;;;;;;16.60;6.20;;;;;;;-0.69;81.13;96338.84;5090731;28;20060;-74
2022/03/25 05:55:06;;;;;;;11.93;6.38;;;;;;;-0.63;81.14;96335.56;5072122;28;20574;-75
2022/03/25 05:57:32;;;;;;;15.50;6.32;;;;;;;-0.54;80.57;96338.84;5090644;28;20040;-74
2022/03/25 05:59:59;;;;;;;13.93;6.82;;;;;;;-0.60;81.42;96332.63;5090426;28;20063;-74
2022/03/25 06:02:26;;;;;;;11.23;6.30;;;;;;;-0.50;82.15;96347.03;5095254;28;20409;-74
2022/03/25 06:04:52;;;;;;;14.30;6.60;;;;;;;-0.47;82.92;96338.94;5090570;28;20040;-74
2022/03/25 06:07:17;;;;;;;14.70;6.63;;;;;;;-0.34;81.25;96344.28;5075965;28;20527;-74
2022/03/25 06:09:43;;;;;;;16.33;6.90;;;;;;;-0.23;80.66;96341.25;5107692;28;20169;-75
2022/03/25 06:12:11;;;;;;;16.27;6.95;;;;;;;-0.27;82.12;96340.00;5092254;28;20122;-71
2022/03/25 06:14:38;;;;;;;12.98;6.60;;;;;;;-0.31;83.11;96346.50;5089806;28;20036;-73
2022/03/25 06:17:05;;;;;;;11.88;6.30;;;;;;;-0.21;82.05;96347.03;5095298;28;20047;-73
2022/03/25 06:19:31;;;;;;;13.85;6.60;;;;;;;-0.04;81.41;96339.09;5097353;28;20048;-74
2022/03/25 06:21:57;;;;;;;14.35;7.00;;;;;;;0.27;81.50;96346.56;5099351;28;20040;-74
2022/03/25 06:24:23;;;;;;;17.65;7.10;;;;;;;0.50;80.83;96340.41;5089487;28;20044;-73
2022/03/25 06:26:49;;;;;;;14.52;6.93;;;;;;;0.50;80.90;96345.59;5101333;28;20044;-72
2022/03/25 06:29:14;;;;;;;14.32;6.72;;;;;;;0.48;81.34;96342.41;5104416;28;20104;-72
2022/03/25 06:31:40;;;;;;;26.05;7.80;;;;;;;0.51;81.95;96348.00;5084415;28;20043;-72
2022/03/25 06:34:05;;;;;;;29.42;7.78;;;;;;;0.59;81.75;96348.88;5095288;28;20053;-72
2022/03/25 06:36:31;;;;;;;20.15;7.45;;;;;;;0.68;81.61;96342.59;5100591;28;20040;-72
2022/03/25 06:38:57;;;;;;;17.02;7.03;;;;;;;0.70;82.11;96335.41;5120106;27;20035;-72
2022/03/25 06:41:22;;;;;;;15.85;6.40;;;;;;;0.82;82.24;96349.47;5092450;28;20043;-72
2022/03/25 06:43:49;;;;;;;16.45;6.97;;;;;;;0.94;82.56;96347.19;5090373;28;20036;-73
2022/03/25 06:46:19;;;;;;;14.60;6.90;;;;;;;1.03;81.88;96345.25;5109063;28;20051;-72
2022/03/25 06:48:45;;;;;;;17.27;6.95;;;;;;;1.15;83.51;96348.13;5103277;28;20043;-72
2022/03/25 06:51:10;;;;;;;15.82;7.22;;;;;;;1.30;83.05;96346.22;5108979;28;20050;-71
2022/03/25 06:53:36;;;;;;;15.15;7.35;;;;;;;1.88;79.85;96343.38;5100922;28;20043;-73
2022/03/25 06:56:03;;;;;;;13.48;7.22;;;;;;;2.07;79.94;96347.03;5091340;28;20063;-73
2022/03/25 06:58:29;;;;;;;12.25;6.80;;;;;;;2.27;79.37;96351.50;5092736;28;20111;-73
2022/03/25 07:00:55;;;;;;;15.57;7.25;;;;;;;2.56;78.16;96355.53;5093064;28;20052;-71
2022/03/25 07:03:22;;;;;;;12.50;6.80;;;;;;;2.80;76.79;96355.94;5093148;28;20052;-72
2022/03/25 07:05:48;;;;;;;14.20;6.93;;;;;;;3.41;73.87;96351.53;5089231;28;20506;-73
2022/03/25 07:08:14;;;;;;;17.58;6.72;;;;;;;3.94;71.53;96356.59;5092940;28;20042;-72
2022/03/25 07:10:40;;;;;;;11.00;6.38;;;;;;;4.22;70.42;96358.09;5106431;28;20048;-72
2022/03/25 07:13:06;;;;;;;14.63;6.72;;;;;;;4.68;67.93;96362.25;5093802;28;20417;-73
2022/03/25 07:15:32;;;;;;;14.63;6.78;;;;;;;5.08;66.19;96357.75;5100977;28;20047;-73
2022/03/25 07:17:57;;;;;;;13.35;6.85;;;;;;;5.45;65.65;96360.47;5106506;28;20107;-72
2022/03/25 07:20:25;;;;;;;13.18;6.55;;;;;;;5.71;64.67;96357.56;5094224;28;20059;-72
2022/03/25 07:22:52;;;;;;;12.88;6.80;;;;;;;5.59;66.41;96361.94;5095149;28;20467;-73
2022/03/25 07:25:18;;;;;;;15.00;7.70;;;;;;;5.44;66.73;96364.88;5097254;28;20032;-72
2022/03/25 07:27:45;;;;;;;16.85;7.20;;;;;;;5.83;64.58;96362.88;5091585;28;20050;-72
2022/03/25 07:30:13;;;;;;;12.85;6.90;;;;;;;6.05;64.98;96360.66;5089398;28;20047;-72
2022/03/25 07:32:38;;;;;;;18.50;8.57;;;;;;;6.10;61.28;96361.81;5074873;28;20073;-74
2022/03/25 07:35:04;;;;;;;16.17;8.38;;;;;;;6.16;62.08;96371.38;5098844;28;20123;-74
2022/03/25 07:37:30;;;;;;;18.92;9.05;;;;;;;6.27;60.60;96367.25;5096822;28;20047;-72
2022/03/25 07:39:55;;;;;;;17.08;8.63;;;;;;;6.33;61.95;96369.75;5105058;28;20093;-71
2022/03/25 07:42:21;;;;;;;19.25;9.70;;;;;;;6.32;59.94;96364.75;5100260;28;20048;-72
2022/03/25 07:44:47;;;;;;;18.90;9.35;;;;;;;6.38;58.83;96367.28;5102158;28;20035;-72
2022/03/25 07:47:14;;;;;;;19.73;10.40;;;;;;;6.64;58.78;96362.72;5099159;28;20054;-72
2022/03/25 07:49:40;;;;;;;19.67;9.60;;;;;;;6.81;57.99;96362.88;5100970;28;20040;-72
2022/03/25 07:52:14;;;;;;;19.30;9.73;;;;;;;6.94;58.00;96369.72;5093604;28;20036;-72
2022/03/25 07:54:39;;;;;;;21.48;10.25;;;;;;;6.98;56.35;96373.47;5088122;28;20101;-73
2022/03/25 07:57:06;;;;;;;19.08;9.63;;;;;;;7.11;56.63;96365.44;5073161;28;20048;-73
2022/03/25 07:59:31;;;;;;;26.73;12.02;;;;;;;7.18;55.49;96367.13;5088206;28;20040;-73
2022/03/25 08:01:57;;;;;;;23.95;11.50;;;;;;;7.16;55.76;96363.97;5090915;28;20040;-73
2022/03/25 08:04:25;;;;;;;22.88;11.18;;;;;;;7.26;54.74;96370.22;5105039;28;20036;-74
2022/03/25 08:06:52;;;;;;;21.05;10.93;;;;;;;7.29;53.77;96368.97;5092865;28;20557;-73
2022/03/25 08:09:17;;;;;;;21.48;10.98;;;;;;;7.51;53.25;96366.56;5098706;28;20036;-73
2022/03/25 08:11:46;;;;;;;20.30;11.10;;;;;;;7.77;53.62;96370.56;5097228;28;20807;-72
2022/03/25 08:14:13;;;;;;;21.30;12.13;;;;;;;7.70;54.22;96364.66;5095133;28;20056;-73
2022/03/25 08:16:40;;;;;;;21.90;11.52;;;;;;;7.73;53.50;96368.59;5095236;28;20687;-74
2022/03/25 08:19:06;;;;;;;23.63;11.73;;;;;;;7.89;52.06;96372.38;5098647;28;20043;-72
2022/03/25 08:21:32;;;;;;;21.85;11.82;;;;;;;7.91;52.83;96370.31;5091576;28;20044;-72
2022/03/25 08:29:27;;;;;;;23.42;11.80;;;;;;;8.34;52.00;96366.44;5104431;28;20058;-73
2022/03/25 08:31:53;;;;;;;25.52;12.10;;;;;;;8.35;50.92;96375.91;5096265;28;20043;-74
2022/03/25 08:34:18;;;;;;;23.67;11.48;;;;;;;8.50;51.28;96375.41;5091269;28;20039;-75
2022/03/25 08:36:47;;;;;;;29.77;11.75;;;;;;;8.41;51.77;96374.97;5099315;28;20123;-72
2022/03/25 08:39:13;;;;;;;22.98;12.48;;;;;;;8.57;50.76;96372.66;5106884;28;20036;-72
2022/03/25 08:41:38;;;;;;;24.27;12.65;;;;;;;8.63;49.59;96376.97;5101371;28;20097;-72
2022/03/25 08:44:04;;;;;;;23.27;12.63;;;;;;;8.66;50.06;96381.72;5101296;28;20516;-72
2022/03/25 08:46:30;;;;;;;28.60;12.10;;;;;;;9.01;49.46;96378.16;5095578;28;20035;-75
2022/03/25 08:48:55;;;;;;;25.73;12.15;;;;;;;9.05;48.50;96379.25;5108285;28;20553;-74
2022/03/25 08:51:21;;;;;;;35.58;13.05;;;;;;;9.03;49.46;96378.69;5108629;28;20047;-73
2022/03/25 08:53:47;;;;;;;22.33;12.60;;;;;;;9.23;49.87;96380.06;5100476;28;20051;-72
2022/03/25 08:56:13;;;;;;;25.30;12.75;;;;;;;9.19;49.88;96380.53;5099689;28;20046;-74
2022/03/25 08:58:40;;;;;;;24.15;12.70;;;;;;;9.21;48.43;96382.13;5108752;28;20096;-75
2022/03/25 09:01:05;;;;;;;27.38;12.40;;;;;;;9.27;48.53;96381.19;5082594;28;20036;-74
2022/03/25 09:03:32;;;;;;;25.80;12.27;;;;;;;9.48;47.91;96377.81;5103384;28;20050;-74
2022/03/25 09:05:58;;;;;;;22.58;11.88;;;;;;;9.53;47.61;96380.50;5097564;28;20036;-74
2022/03/25 09:08:24;;;;;;;23.65;12.27;;;;;;;9.71;47.18;96376.84;5092005;28;20040;-73
2022/03/25 09:10:51;;;;;;;30.30;12.80;;;;;;;9.77;47.27;96377.69;5103486;28;20039;-73
2022/03/25 09:13:17;;;;;;;27.73;13.25;;;;;;;9.84;47.35;96375.69;5098033;28;20036;-73
2022/03/25 09:15:42;;;;;;;29.63;13.38;;;;;;;10.13;47.03;96379.97;5098116;28;20047;-73
2022/03/25 09:18:08;;;;;;;34.50;14.50;;;;;;;10.23;46.25;96383.53;5091978;28;20119;-72
2022/03/25 09:20:34;;;;;;;27.38;14.07;;;;;;;10.48;44.17;96374.34;5105062;28;20051;-72
2022/03/25 09:23:00;;;;;;;32.28;14.85;;;;;;;10.55;44.12;96374.97;5082302;28;20044;-72
2022/03/25 09:25:26;;;;;;;33.40;14.18;;;;;;;10.54;44.07;96373.38;5100318;28;20051;-73
2022/03/25 09:27:52;;;;;;;27.58;15.27;;;;;;;10.46;43.05;96371.19;5094577;28;20036;-73
2022/03/25 09:30:17;;;;;;;28.58;15.13;;;;;;;10.52;43.06;96375.47;5098653;27;20543;-75
2022/03/25 09:32:43;;;;;;;31.83;15.40;;;;;;;10.69;42.13;96377.22;5089301;28;20054;-75
2022/03/25 09:35:09;;;;;;;32.65;15.18;;;;;;;11.02;41.97;96378.03;5102206;28;20524;-74
2022/03/25 09:37:52;;;;;;;34.67;15.55;;;;;;;11.17;40.80;96375.53;5098422;28;20040;-74
2022/03/25 09:40:21;;;;;;;32.33;16.15;;;;;;;11.37;41.25;96382.00;5101935;28;20501;-75
2022/03/25 09:42:48;;;;;;;33.08;16.35;;;;;;;11.39;40.46;96374.63;5072800;28;20123;-73
2022/03/25 09:45:18;;;;;;;32.75;15.77;;;;;;;11.52;39.04;96376.84;5097181;28;20116;-73
2022/03/25 09:47:45;;;;;;;29.45;15.73;;;;;;;11.62;39.15;96376.09;5089239;28;20036;-73
2022/03/25 09:50:14;;;;;;;36.40;16.50;;;;;;;11.71;39.01;96379.03;5090196;28;20674;-73
2022/03/25 09:52:43;;;;;;;34.25;15.50;;;;;;;12.01;36.74;96372.38;5099351;28;20047;-74
2022/03/25 09:55:09;;;;;;;30.65;16.33;;;;;;;12.13;36.82;96375.59;5077863;28;20040;-74
2022/03/25 09:57:35;;;;;;;29.98;16.88;;;;;;;12.38;36.23;96371.47;5091886;28;20644;-74
2022/03/25 10:00:01;;;;;;;33.45;16.77;;;;;;;12.56;36.54;96372.84;5071910;28;20047;-74
2022/03/25 10:02:26;;;;;;;39.20;16.63;;;;;;;12.72;35.09;96366.53;5091077;27;20044;-74
2022/03/25 10:04:53;;;;;;;32.25;16.23;;;;;;;12.86;35.11;96366.84;5089719;28;20047;-73
2022/03/25 10:07:27;;;;;;;33.25;17.02;;;;;;;13.21;34.53;96362.63;5071857;28;20048;-74
2022/03/25 10:10:11;;;;;;;35.42;18.15;;;;;;;13.36;34.68;96348.63;5091100;28;20040;-74
2022/03/25 10:12:39;;;;;;;33.70;17.48;;;;;;;13.81;33.79;96365.47;5081875;28;20126;-73
2022/03/25 10:15:25;;;;;;;36.63;18.60;;;;;;;14.04;33.57;96358.00;5100410;28;20139;-72
2022/03/25 10:17:58;;;;;;;42.78;18.40;;;;;;;14.53;31.88;96359.09;5090092;28;20497;-72
2022/03/25 10:20:35;;;;;;;37.35;17.48;;;;;;;15.06;31.23;96356.66;5092491;28;20058;-72
2022/03/25 10:23:08;;;;;;;34.30;18.17;;;;;;;15.87;30.01;96347.47;5080443;28;20048;-72
2022/03/25 10:25:40;;;;;;;37.70;17.88;;;;;;;16.18;29.10;96347.91;5104589;28;20040;-72
2022/03/25 10:28:17;;;;;;;43.30;18.25;;;;;;;17.01;28.29;96342.28;5101576;28;20039;-72
2022/03/25 10:30:44;;;;;;;39.75;18.63;;;;;;;17.56;28.07;96351.50;5090297;28;20068;-72
2022/03/25 10:33:19;;;;;;;33.63;18.52;;;;;;;18.17;26.20;96350.38;5090810;28;20148;-72
2022/03/25 10:36:02;;;;;;;39.40;19.98;;;;;;;18.39;26.28;96335.53;5103596;28;20066;-72
2022/03/25 10:38:44;;;;;;;39.75;21.25;;;;;;;19.05;25.80;96345.81;5107680;28;20043;-72
2022/03/25 10:41:13;;;;;;;37.22;20.00;;;;;;;18.70;25.58;96345.50;5097649;28;20044;-72
2022/03/25 10:44:02;;;;;;;36.15;19.50;;;;;;;17.60;26.45;96347.16;5104878;27;20382;-71
2022/03/25 10:46:46;;;;;;;42.33;20.98;;;;;;;18.58;27.17;96337.28;5100426;27;20047;-70
2022/03/25 10:49:17;;;;;;;38.77;22.27;;;;;;;19.62;25.04;96347.09;5105940;28;20040;-70
2022/03/25 10:51:51;;;;;;;41.30;20.60;;;;;;;18.89;25.67;96336.59;5099170;27;20105;-72
2022/03/25 10:54:21;;;;;;;;;;;;;;;19.62;25.07;96336.41;5095201;28;20051;-73
2022/03/25 10:56:48;;;;;;;34.67;19.40;;;;;;;19.52;24.00;96332.91;5091711;28;19924;-73
2022/03/25 10:59:22;;;;;;;36.50;20.05;;;;;;;19.54;24.74;96340.63;5084436;28;20504;-73
2022/03/25 11:01:50;;;;;;;;;;;;;;;19.49;24.57;96338.84;5098952;28;20059;-72
2022/03/25 11:04:16;;;;;;;33.13;19.50;;;;;;;19.01;23.45;96344.84;5103692;28;19923;-72
2022/03/25 11:06:43;;;;;;;31.60;18.30;;;;;;;19.38;24.79;96337.56;5102453;27;20101;-72
2022/03/25 11:09:09;;;;;;;35.17;21.35;;;;;;;19.63;23.90;96332.66;5105272;28;20493;-72
2022/03/25 11:11:37;;;;;;;32.53;21.17;;;;;;;20.43;23.34;96322.69;5099791;28;20044;-72
2022/03/25 11:14:04;;;;;;;34.30;19.55;;;;;;;19.37;23.55;96333.31;5102114;28;20123;-72
2022/03/25 11:16:32;;;;;;;30.92;19.35;;;;;;;20.43;23.19;96321.91;5096447;28;20055;-76
2022/03/25 11:18:58;;;;;;;34.95;18.90;;;;;;;20.58;23.64;96324.09;5101419;28;20047;-75
2022/03/25 11:21:26;;;;;;;27.63;18.15;;;;;;;21.11;23.48;96318.78;5100017;28;20043;-74
2022/03/25 11:23:56;;;;;;;30.92;19.67;;;;;;;21.10;23.17;96317.19;5093675;28;20072;-74
2022/03/25 11:26:24;;;;;;;31.65;19.60;;;;;;;20.09;23.28;96323.41;5078902;28;20043;-74
2022/03/25 11:28:54;;;;;;;29.45;20.05;;;;;;;20.96;22.99;96316.59;5095404;28;20039;-73
2022/03/25 11:31:19;;;;;;;30.00;20.13;;;;;;;20.94;22.71;96315.00;5097525;28;20375;-73